Time;durP1;ratioP1;P1;durP2;ratioP2;P2;SDS_P1;SDS_P2;PMS_P1;PMS_P2;Temp;Humidity;BMP_temperature;BMP_pressure;BME280_temperature;BME280_humidity;BME280_pressure;Samples;Min_cycle;Max_cycle;Signal;HPM_P1;HPM_P2
2021/04/29 00:01:25;;;;;;;5.30;2.67;;;13.80;99.90;;;;;;5093071;28;20412;-68
2021/04/29 00:03:50;;;;;;;3.63;2.63;;;13.80;99.90;;;;;;5092690;28;20186;-68
2021/04/29 00:06:16;;;;;;;4.20;2.60;;;13.80;99.90;;;;;;5092795;28;20400;-68
2021/04/29 00:08:42;;;;;;;3.10;2.73;;;13.80;99.90;;;;;;5092741;28;20235;-67
2021/04/29 00:11:09;;;;;;;2.40;2.20;;;13.80;99.90;;;;;;5092998;28;20536;-68
2021/04/29 00:13:35;;;;;;;4.07;3.00;;;13.80;99.90;;;;;;5092597;28;20195;-68
2021/04/29 00:16:01;;;;;;;8.90;4.13;;;13.80;99.90;;;;;;5092657;28;20499;-68
2021/04/29 00:18:27;;;;;;;6.97;3.23;;;13.70;99.90;;;;;;5092778;28;20444;-68
2021/04/29 00:20:56;;;;;;;5.63;3.17;;;13.80;99.90;;;;;;5095407;28;20401;-68
2021/04/29 00:23:30;;;;;;;4.87;2.77;;;13.70;99.90;;;;;;5096657;28;20180;-68
2021/04/29 00:25:56;;;;;;;4.93;2.70;;;13.60;99.90;;;;;;5096703;28;20443;-68
2021/04/29 00:28:22;;;;;;;4.90;3.10;;;13.60;99.90;;;;;;5097015;28;20411;-68
2021/04/29 00:30:49;;;;;;;5.10;2.77;;;13.60;99.90;;;;;;5096608;28;20424;-68
2021/04/29 00:33:15;;;;;;;3.40;2.70;;;13.60;99.90;;;;;;5096575;28;20648;-68
2021/04/29 00:35:41;;;;;;;3.97;2.63;;;13.50;99.90;;;;;;5096464;28;20415;-68
2021/04/29 00:38:06;;;;;;;3.67;2.80;;;13.60;99.90;;;;;;5096356;28;20227;-68
2021/04/29 00:40:32;;;;;;;6.63;2.63;;;13.70;99.90;;;;;;5096417;28;20200;-68
2021/04/29 00:42:58;;;;;;;4.90;3.00;;;13.50;99.90;;;;;;5096414;28;20168;-68
2021/04/29 00:45:23;;;;;;;4.50;2.80;;;13.60;99.90;;;;;;5096172;28;20456;-68
2021/04/29 00:47:50;;;;;;;5.33;2.60;;;13.50;99.90;;;;;;5096338;28;20175;-68
2021/04/29 00:50:17;;;;;;;4.70;2.37;;;13.60;99.90;;;;;;5096704;28;20706;-68
2021/04/29 00:52:43;;;;;;;3.30;2.40;;;13.50;99.90;;;;;;5096614;28;20445;-68
2021/04/29 00:55:09;;;;;;;2.90;2.13;;;13.50;99.90;;;;;;5096013;28;20431;-68
2021/04/29 00:57:34;;;;;;;3.67;2.83;;;13.50;99.90;;;;;;5095993;28;20541;-68
2021/04/29 01:00:01;;;;;;;4.27;2.83;;;13.60;99.90;;;;;;5095990;28;20454;-68
2021/04/29 01:02:28;;;;;;;4.23;2.70;;;13.60;99.90;;;;;;5095891;28;20167;-68
2021/04/29 01:05:04;;;;;;;2.83;2.07;;;13.60;99.90;;;;;;5095843;28;20426;-67
2021/04/29 01:07:34;;;;;;;3.73;2.33;;;13.50;99.90;;;;;;5096035;28;20405;-68
2021/04/29 01:10:19;;;;;;;3.73;2.67;;;13.50;99.90;;;;;;5096388;28;20409;-68
2021/04/29 01:12:44;;;;;;;6.90;3.30;;;13.50;99.90;;;;;;5095989;28;20464;-68
2021/04/29 01:15:11;;;;;;;7.20;2.40;;;13.60;99.90;;;;;;5095883;28;20446;-68
2021/04/29 01:17:42;;;;;;;3.60;2.73;;;13.50;99.90;;;;;;5095597;28;20185;-68
2021/04/29 01:20:14;;;;;;;4.20;2.67;;;13.50;99.90;;;;;;5095866;28;20874;-68
2021/04/29 01:23:00;;;;;;;3.30;2.77;;;13.50;99.90;;;;;;5095820;28;20394;-68
2021/04/29 01:25:28;;;;;;;5.47;2.60;;;13.40;99.90;;;;;;5095520;28;20379;-68
2021/04/29 01:27:54;;;;;;;4.30;2.93;;;13.50;99.90;;;;;;5095392;28;20411;-69
2021/04/29 01:30:20;;;;;;;5.20;2.80;;;13.50;99.90;;;;;;5095297;28;20406;-68
2021/04/29 01:32:46;;;;;;;3.13;2.57;;;13.50;99.90;;;;;;5095592;28;20398;-69
2021/04/29 01:35:12;;;;;;;2.97;2.40;;;13.50;99.90;;;;;;5095228;28;20450;-68
2021/04/29 01:37:38;;;;;;;3.80;2.87;;;13.50;99.90;;;;;;5095453;28;20552;-67
2021/04/29 01:40:07;;;;;;;4.20;2.50;;;13.50;99.90;;;;;;5095185;28;20171;-68
2021/04/29 01:42:34;;;;;;;4.20;2.90;;;13.50;99.90;;;;;;5095166;28;20930;-68
2021/04/29 01:45:01;;;;;;;4.90;2.70;;;13.50;99.90;;;;;;5095280;28;20785;-69
2021/04/29 01:47:27;;;;;;;4.40;2.13;;;13.40;99.90;;;;;;5095085;28;20404;-68
2021/04/29 01:49:53;;;;;;;5.80;2.40;;;13.40;99.90;;;;;;5095127;28;20416;-68
2021/04/29 01:52:19;;;;;;;9.90;2.63;;;13.40;99.90;;;;;;5095240;28;20414;-68
2021/04/29 01:54:45;;;;;;;4.60;2.30;;;13.50;99.90;;;;;;5094847;28;20422;-68
2021/04/29 01:57:10;;;;;;;2.63;2.00;;;13.40;99.90;;;;;;5094852;28;20277;-68
2021/04/29 01:59:36;;;;;;;3.97;2.50;;;13.40;99.90;;;;;;5095093;28;20967;-68
2021/04/29 02:02:02;;;;;;;3.10;2.43;;;13.40;99.90;;;;;;5095105;28;20193;-68
2021/04/29 02:04:27;;;;;;;4.30;2.47;;;13.40;99.90;;;;;;5094653;28;20740;-68
2021/04/29 02:06:53;;;;;;;4.83;3.23;;;13.40;99.90;;;;;;5094755;28;20417;-68
2021/04/29 02:09:18;;;;;;;4.83;2.10;;;13.30;99.90;;;;;;5094724;28;20219;-68
2021/04/29 02:11:51;;;;;;;4.57;2.60;;;13.20;99.90;;;;;;5094983;28;20168;-69
2021/04/29 02:14:23;;;;;;;4.30;2.13;;;13.30;99.90;;;;;;5094576;28;20242;-68
2021/04/29 02:16:51;;;;;;;5.00;2.80;;;13.20;99.90;;;;;;5094606;28;20504;-68
2021/04/29 02:19:20;;;;;;;5.00;2.53;;;13.30;99.90;;;;;;5094556;28;20404;-68
2021/04/29 02:21:48;;;;;;;6.23;2.77;;;13.20;99.90;;;;;;5094511;28;20425;-68
2021/04/29 02:24:16;;;;;;;3.00;2.33;;;13.30;99.90;;;;;;5094413;28;20420;-69
2021/04/29 02:26:42;;;;;;;2.80;2.40;;;13.20;99.90;;;;;;5094391;28;20471;-68
2021/04/29 02:29:09;;;;;;;5.23;2.70;;;13.30;99.90;;;;;;5094390;28;20398;-68
2021/04/29 02:31:36;;;;;;;3.70;2.03;;;13.30;99.90;;;;;;5094239;28;20799;-68
2021/04/29 02:34:06;;;;;;;7.83;2.73;;;13.30;99.90;;;;;;5094195;28;20516;-69
2021/04/29 02:36:33;;;;;;;6.07;2.47;;;13.20;99.90;;;;;;5094214;28;20440;-68
2021/04/29 02:38:59;;;;;;;3.63;2.50;;;13.30;99.90;;;;;;5094130;28;20495;-68
2021/04/29 02:41:25;;;;;;;4.40;2.57;;;13.30;99.90;;;;;;5094120;28;20434;-68
2021/04/29 02:43:51;;;;;;;5.90;2.43;;;13.40;99.90;;;;;;5093756;28;20459;-68
2021/04/29 02:46:18;;;;;;;5.37;2.33;;;13.40;99.90;;;;;;5094033;28;20163;-69
2021/04/29 02:48:43;;;;;;;21.93;19.23;;;13.30;99.90;;;;;;5092660;28;20417;-68
2021/04/29 02:51:10;;;;;;;6.70;3.00;;;13.20;99.90;;;;;;5094099;28;20957;-68
2021/04/29 02:53:36;;;;;;;5.43;2.80;;;13.30;99.90;;;;;;5093774;28;20198;-68
2021/04/29 02:56:03;;;;;;;2.83;2.10;;;13.30;99.90;;;;;;5093797;28;20497;-68
2021/04/29 02:58:28;;;;;;;3.57;2.60;;;13.30;99.90;;;;;;5093646;28;20667;-68
2021/04/29 03:00:57;;;;;;;4.77;3.10;;;13.20;99.90;;;;;;5094013;28;20410;-68
2021/04/29 03:03:23;;;;;;;5.20;3.43;;;13.30;99.90;;;;;;5093918;28;20817;-68
2021/04/29 03:05:48;;;;;;;3.73;2.63;;;13.30;99.90;;;;;;5093605;28;20405;-68
2021/04/29 03:08:14;;;;;;;4.53;3.17;;;13.30;99.90;;;;;;5093966;28;20209;-68
2021/04/29 03:10:40;;;;;;;6.30;3.30;;;13.20;99.90;;;;;;5093849;28;20538;-68
2021/04/29 03:13:05;;;;;;;6.90;3.10;;;13.10;99.90;;;;;;5093498;28;20532;-68
2021/04/29 03:15:31;;;;;;;5.73;3.63;;;13.20;99.90;;;;;;5093402;28;20187;-68
2021/04/29 03:17:56;;;;;;;3.47;3.10;;;13.20;99.90;;;;;;5093679;28;20202;-68
2021/04/29 03:20:22;;;;;;;5.50;3.60;;;13.20;99.90;;;;;;5093423;28;20167;-67
2021/04/29 03:22:48;;;;;;;7.33;3.37;;;13.20;99.90;;;;;;5092071;28;20164;-68
2021/04/29 03:25:13;;;;;;;8.43;3.33;;;13.20;99.90;;;;;;5093275;28;20214;-68
2021/04/29 03:27:40;;;;;;;4.47;3.23;;;13.20;99.90;;;;;;5093416;28;20227;-68
2021/04/29 03:30:06;;;;;;;5.90;3.77;;;13.20;99.90;;;;;;5092005;28;20175;-68
2021/04/29 03:32:31;;;;;;;7.40;4.23;;;13.20;99.90;;;;;;5093177;28;20498;-68
2021/04/29 03:34:57;;;;;;;4.63;3.77;;;13.30;99.90;;;;;;5093339;28;20520;-68
2021/04/29 03:37:22;;;;;;;7.13;4.47;;;13.30;99.90;;;;;;5093420;28;20238;-68
2021/04/29 03:39:48;;;;;;;5.87;3.70;;;13.10;99.90;;;;;;5093106;28;20171;-68
2021/04/29 03:42:14;;;;;;;5.70;4.20;;;13.10;99.90;;;;;;5093379;28;20607;-68
2021/04/29 03:44:40;;;;;;;7.13;4.33;;;13.10;99.90;;;;;;5092975;28;20194;-68
2021/04/29 03:47:06;;;;;;;6.50;4.20;;;13.20;99.90;;;;;;5093286;28;20509;-68
2021/04/29 03:49:33;;;;;;;5.10;4.60;;;13.20;99.90;;;;;;5092965;28;20409;-68
2021/04/29 03:51:59;;;;;;;12.83;4.90;;;13.20;99.90;;;;;;5092961;28;20256;-68
2021/04/29 03:54:26;;;;;;;9.03;4.77;;;13.20;99.90;;;;;;5091990;28;20425;-68
2021/04/29 03:56:52;;;;;;;5.80;4.07;;;13.10;99.90;;;;;;5092860;28;20449;-68
2021/04/29 03:59:18;;;;;;;8.57;4.30;;;13.20;99.90;;;;;;5093183;28;20484;-69
2021/04/29 04:01:44;;;;;;;6.07;3.70;;;13.20;99.90;;;;;;5093171;28;20398;-68
2021/04/29 04:04:09;;;;;;;5.53;4.00;;;13.20;99.90;;;;;;5092831;28;20427;-68
2021/04/29 04:06:35;;;;;;;5.70;4.50;;;13.10;99.90;;;;;;5092764;28;20164;-68
2021/04/29 04:09:01;;;;;;;12.60;4.57;;;13.10;99.90;;;;;;5092688;28;20187;-68
2021/04/29 04:11:26;;;;;;;6.63;4.47;;;13.10;99.90;;;;;;5093159;28;20175;-69
2021/04/29 04:13:53;;;;;;;13.33;3.67;;;13.10;99.90;;;;;;5092690;28;20187;-69
2021/04/29 04:16:18;;;;;;;6.67;3.10;;;13.10;99.90;;;;;;5092780;28;20203;-68
2021/04/29 04:18:44;;;;;;;6.23;3.60;;;13.10;99.90;;;;;;5092632;28;20977;-69
2021/04/29 04:21:10;;;;;;;6.60;3.70;;;13.00;99.90;;;;;;5092764;28;20655;-69
2021/04/29 04:23:36;;;;;;;4.37;3.73;;;13.10;99.90;;;;;;5092805;28;20544;-69
2021/04/29 04:26:02;;;;;;;20.53;3.00;;;13.00;99.90;;;;;;5092650;28;20412;-69
2021/04/29 04:28:28;;;;;;;8.10;4.23;;;12.90;99.90;;;;;;5092560;28;20175;-69
2021/04/29 04:30:54;;;;;;;4.93;4.03;;;13.00;99.90;;;;;;5092571;28;20774;-68
2021/04/29 04:33:19;;;;;;;6.60;5.73;;;13.10;99.90;;;;;;5092733;28;20941;-69
2021/04/29 04:35:45;;;;;;;10.90;5.30;;;13.00;99.90;;;;;;5092561;28;20172;-68
2021/04/29 04:38:10;;;;;;;7.10;4.60;;;12.90;99.90;;;;;;5092494;28;20229;-69
2021/04/29 04:40:36;;;;;;;7.63;5.53;;;12.80;99.90;;;;;;5092495;28;20255;-69
2021/04/29 04:43:02;;;;;;;8.53;6.00;;;12.90;99.90;;;;;;5092754;28;20692;-68
2021/04/29 04:45:27;;;;;;;13.90;7.50;;;12.80;99.90;;;;;;5092444;28;20574;-68
2021/04/29 04:47:53;;;;;;;12.33;8.40;;;12.80;99.90;;;;;;5092311;28;20288;-68
2021/04/29 04:50:19;;;;;;;12.23;9.33;;;12.80;99.90;;;;;;5092653;28;20175;-68
2021/04/29 04:52:44;;;;;;;10.00;7.27;;;12.70;99.90;;;;;;5092382;28;20164;-68
2021/04/29 04:55:10;;;;;;;11.40;8.73;;;12.70;99.90;;;;;;5092613;28;20203;-69
2021/04/29 04:57:35;;;;;;;11.23;8.23;;;12.60;99.90;;;;;;5092554;28;20199;-69
2021/04/29 05:00:01;;;;;;;17.73;9.50;;;12.60;99.90;;;;;;5092304;28;20819;-69
2021/04/29 05:02:27;;;;;;;14.40;9.50;;;12.60;99.90;;;;;;5092299;28;20194;-69
2021/04/29 05:04:53;;;;;;;12.33;9.10;;;12.60;99.90;;;;;;5092251;28;20530;-68
2021/04/29 05:07:18;;;;;;;11.90;9.03;;;12.60;99.90;;;;;;5095160;28;20406;-69
2021/04/29 05:09:44;;;;;;;11.10;8.60;;;12.70;99.90;;;;;;5095654;28;20194;-69
2021/04/29 05:12:11;;;;;;;15.03;10.50;;;12.60;99.90;;;;;;5095714;28;20167;-68
2021/04/29 05:14:37;;;;;;;11.30;8.90;;;12.60;99.90;;;;;;5095862;28;20183;-69
2021/04/29 05:17:03;;;;;;;12.43;9.83;;;12.70;99.90;;;;;;5095830;28;20856;-68
2021/04/29 05:19:28;;;;;;;14.30;10.37;;;12.60;99.90;;;;;;5096014;28;20554;-68
2021/04/29 05:21:54;;;;;;;16.07;11.10;;;12.70;99.90;;;;;;5095600;28;20171;-69
2021/04/29 05:24:20;;;;;;;17.50;10.03;;;12.60;99.90;;;;;;5094130;28;20256;-68
2021/04/29 05:26:45;;;;;;;14.73;10.67;;;12.60;99.90;;;;;;5094262;28;20168;-69
2021/04/29 05:29:11;;;;;;;21.00;10.63;;;12.50;99.90;;;;;;5095614;28;20254;-69
2021/04/29 05:31:37;;;;;;;12.33;9.00;;;12.60;99.90;;;;;;5094914;28;20213;-69
2021/04/29 05:34:04;;;;;;;14.57;9.70;;;12.50;99.90;;;;;;5095046;28;20626;-68
2021/04/29 05:36:30;;;;;;;14.23;10.73;;;12.50;99.90;;;;;;5094631;28;20168;-68
2021/04/29 05:38:55;;;;;;;12.40;9.93;;;12.60;99.90;;;;;;5094741;28;20506;-69
2021/04/29 05:41:21;;;;;;;15.23;9.90;;;12.60;99.90;;;;;;5095487;28;20413;-69
2021/04/29 05:43:47;;;;;;;12.20;10.13;;;12.80;99.90;;;;;;5094784;28;20187;-68
2021/04/29 05:46:13;;;;;;;19.80;11.47;;;12.80;99.90;;;;;;5094792;28;20203;-69
2021/04/29 05:48:38;;;;;;;13.53;10.77;;;12.70;99.90;;;;;;5095039;28;20212;-68
2021/04/29 05:51:05;;;;;;;15.27;11.40;;;12.70;99.90;;;;;;5095113;28;20413;-68
2021/04/29 05:53:30;;;;;;;17.43;12.10;;;12.50;99.90;;;;;;5095086;28;20250;-69
2021/04/29 05:55:56;;;;;;;12.63;10.43;;;12.60;99.90;;;;;;5095045;28;20405;-68
2021/04/29 05:58:21;;;;;;;19.23;10.53;;;12.70;99.90;;;;;;5095277;28;20590;-69
2021/04/29 06:00:47;;;;;;;12.33;11.03;;;12.70;99.90;;;;;;5094721;28;20514;-69
2021/04/29 06:03:14;;;;;;;15.13;9.23;;;12.60;99.90;;;;;;5093570;28;20174;-69
2021/04/29 06:05:40;;;;;;;11.80;10.40;;;12.80;99.90;;;;;;5094769;28;20176;-69
2021/04/29 06:08:05;;;;;;;19.77;10.50;;;12.70;99.90;;;;;;5094568;28;20424;-68
2021/04/29 06:10:32;;;;;;;15.00;10.80;;;12.80;99.90;;;;;;5094735;28;20839;-69
2021/04/29 06:12:57;;;;;;;14.23;10.60;;;12.70;99.90;;;;;;5093227;28;20172;-69
2021/04/29 06:15:23;;;;;;;12.70;10.90;;;12.70;99.90;;;;;;5094414;28;20429;-69
2021/04/29 06:17:49;;;;;;;18.60;13.53;;;12.70;99.90;;;;;;5093525;28;20199;-68
2021/04/29 06:20:16;;;;;;;19.63;12.90;;;12.70;99.90;;;;;;5094483;28;20225;-69
2021/04/29 06:22:41;;;;;;;17.63;11.60;;;12.70;99.90;;;;;;5094303;28;20252;-69
2021/04/29 06:25:08;;;;;;;15.73;12.43;;;12.60;99.90;;;;;;5093824;28;20854;-70
2021/04/29 06:27:34;;;;;;;18.83;12.83;;;12.50;99.90;;;;;;5093884;28;20198;-69
2021/04/29 06:30:00;;;;;;;20.73;11.80;;;12.20;99.90;;;;;;5094482;28;20827;-69
2021/04/29 06:32:26;;;;;;;14.00;12.20;;;12.60;99.90;;;;;;5094312;28;20196;-68
2021/04/29 06:34:52;;;;;;;16.33;12.73;;;12.70;99.90;;;;;;5092386;28;20759;-68
2021/04/29 06:37:18;;;;;;;19.40;13.40;;;12.40;99.90;;;;;;5093867;28;20456;-69
2021/04/29 06:39:46;;;;;;;19.20;13.37;;;12.50;99.90;;;;;;5093530;28;20398;-69
2021/04/29 06:42:11;;;;;;;19.73;14.30;;;12.40;99.90;;;;;;5093699;28;20164;-68
2021/04/29 06:44:37;;;;;;;21.50;15.27;;;12.40;99.90;;;;;;5093780;28;20498;-70
2021/04/29 06:47:02;;;;;;;20.70;15.93;;;12.30;99.90;;;;;;5093771;28;20674;-68
2021/04/29 06:49:28;;;;;;;21.37;14.90;;;12.20;99.90;;;;;;5093654;28;20220;-68
2021/04/29 06:51:54;;;;;;;18.40;14.37;;;12.20;99.90;;;;;;5093734;28;20181;-68
2021/04/29 06:54:20;;;;;;;17.60;14.00;;;12.10;99.90;;;;;;5093345;28;20191;-68
2021/04/29 06:56:46;;;;;;;22.50;14.03;;;12.40;99.90;;;;;;5093576;28;20397;-68
2021/04/29 06:59:11;;;;;;;25.27;16.60;;;12.20;99.90;;;;;;5093623;28;20202;-68
2021/04/29 07:01:37;;;;;;;25.83;17.83;;;12.60;99.90;;;;;;5093142;28;20178;-69
2021/04/29 07:04:03;;;;;;;23.30;16.77;;;12.60;99.90;;;;;;5093399;28;20465;-69
2021/04/29 07:06:28;;;;;;;22.90;17.30;;;12.60;99.90;;;;;;5092892;28;20176;-68
2021/04/29 07:08:55;;;;;;;23.80;16.90;;;12.70;99.90;;;;;;5093456;28;20195;-68
2021/04/29 07:11:21;;;;;;;26.80;17.70;;;12.80;99.90;;;;;;5093675;28;20585;-68
2021/04/29 07:13:46;;;;;;;27.07;15.90;;;12.80;99.90;;;;;;5093425;28;20436;-68
2021/04/29 07:16:12;;;;;;;20.50;17.10;;;12.80;99.90;;;;;;5093577;28;20316;-68
2021/04/29 07:18:38;;;;;;;28.90;17.50;;;12.70;99.90;;;;;;5092086;28;20222;-69
2021/04/29 07:21:04;;;;;;;23.57;19.17;;;12.80;99.90;;;;;;5093281;28;20865;-68
2021/04/29 07:23:30;;;;;;;22.23;14.00;;;12.80;99.90;;;;;;5093034;28;20608;-69
2021/04/29 07:25:56;;;;;;;24.17;18.47;;;12.50;99.90;;;;;;5091823;28;20417;-70
2021/04/29 07:28:22;;;;;;;25.50;17.93;;;12.60;99.90;;;;;;5092935;28;20175;-68
2021/04/29 07:30:47;;;;;;;23.90;18.33;;;12.90;99.90;;;;;;5093252;28;20441;-68
2021/04/29 07:33:13;;;;;;;40.17;20.43;;;12.70;99.90;;;;;;5093283;28;20418;-68
2021/04/29 07:35:40;;;;;;;32.43;21.13;;;12.80;99.90;;;;;;5093136;28;20171;-68
2021/04/29 07:38:05;;;;;;;36.10;23.47;;;12.80;99.90;;;;;;5093142;28;20512;-68
2021/04/29 07:40:32;;;;;;;27.67;22.30;;;12.90;99.90;;;;;;5093397;28;20417;-68
2021/04/29 07:42:59;;;;;;;27.07;22.00;;;12.90;99.90;;;;;;5093135;28;20168;-68
2021/04/29 07:45:25;;;;;;;32.23;22.87;;;13.00;99.90;;;;;;5092932;28;20414;-69
2021/04/29 07:47:50;;;;;;;31.37;24.37;;;12.90;99.90;;;;;;5092770;28;20463;-69
2021/04/29 07:50:16;;;;;;;30.10;23.60;;;12.90;99.90;;;;;;5092650;28;20797;-68
2021/04/29 07:52:43;;;;;;;31.23;22.00;;;13.00;99.90;;;;;;5092844;28;20533;-68
2021/04/29 07:55:13;;;;;;;33.80;24.63;;;13.20;99.90;;;;;;5092637;28;20422;-68
2021/04/29 07:57:40;;;;;;;31.47;22.30;;;13.50;99.90;;;;;;5092597;28;20461;-68
2021/04/29 08:00:07;;;;;;;35.77;22.10;;;13.70;99.90;;;;;;5092525;28;20401;-68
2021/04/29 08:02:33;;;;;;;27.77;20.47;;;13.90;99.90;;;;;;5092559;28;21051;-68
2021/04/29 08:04:59;;;;;;;29.87;21.83;;;13.50;99.90;;;;;;5092487;28;20437;-68
2021/04/29 08:07:24;;;;;;;27.00;21.30;;;13.30;99.90;;;;;;5092347;28;20455;-68
2021/04/29 08:09:50;;;;;;;27.67;21.97;;;13.20;99.90;;;;;;5092253;28;20179;-69
2021/04/29 08:12:16;;;;;;;28.10;19.00;;;13.70;99.90;;;;;;5092580;28;20178;-68
2021/04/29 08:14:42;;;;;;;35.63;23.37;;;13.70;99.90;;;;;;5092097;28;20219;-68
2021/04/29 08:17:07;;;;;;;38.60;23.90;;;14.10;99.90;;;;;;5092434;28;20460;-68
2021/04/29 08:19:33;;;;;;;32.87;23.53;;;14.10;99.90;;;;;;5092046;28;20180;-68
2021/04/29 08:21:59;;;;;;;39.07;23.20;;;14.30;99.90;;;;;;5092580;28;20165;-68
2021/04/29 08:24:25;;;;;;;29.60;21.40;;;14.10;99.90;;;;;;5092426;28;20421;-69
2021/04/29 08:26:50;;;;;;;32.40;22.83;;;13.90;99.90;;;;;;5092520;28;20171;-67
2021/04/29 08:29:16;;;;;;;36.83;22.73;;;14.00;99.90;;;;;;5092781;28;20184;-68
2021/04/29 08:31:41;;;;;;;29.03;20.93;;;13.80;99.90;;;;;;5092604;28;20175;-68
2021/04/29 08:34:07;;;;;;;34.60;22.53;;;14.10;99.90;;;;;;5091927;28;20625;-68
2021/04/29 08:36:33;;;;;;;39.97;26.00;;;14.20;99.90;;;;;;5092293;28;20175;-68
2021/04/29 08:39:00;;;;;;;38.67;27.77;;;14.20;99.90;;;;;;5092068;28;20279;-68
2021/04/29 08:41:26;;;;;;;40.20;27.27;;;14.30;99.90;;;;;;5094338;28;20368;-68
2021/04/29 08:43:52;;;;;;;33.33;23.50;;;14.50;99.90;;;;;;5095794;28;20425;-68
2021/04/29 08:46:17;;;;;;;43.70;23.83;;;14.50;99.90;;;;;;5095885;28;20409;-68
2021/04/29 08:48:43;;;;;;;37.03;24.57;;;14.80;99.90;;;;;;5095864;28;20632;-68
2021/04/29 08:51:09;;;;;;;36.13;26.97;;;14.50;99.90;;;;;;5096141;28;20175;-68
2021/04/29 08:53:35;;;;;;;33.33;22.30;;;14.30;99.90;;;;;;5095425;28;20357;-69
2021/04/29 08:56:01;;;;;;;34.87;23.90;;;14.20;99.90;;;;;;5095550;28;20266;-69
2021/04/29 08:58:26;;;;;;;35.80;23.60;;;14.90;99.90;;;;;;5095458;28;20459;-68
2021/04/29 09:01:00;;;;;;;37.67;24.90;;;14.80;99.90;;;;;;5094592;28;20164;-67
2021/04/29 09:03:33;;;;;;;67.33;22.13;;;14.80;99.90;;;;;;5095725;28;20191;-69
2021/04/29 09:06:00;;;;;;;24.57;17.77;;;14.60;99.90;;;;;;5096072;28;20382;-69
2021/04/29 09:08:31;;;;;;;35.50;22.73;;;14.30;99.90;;;;;;5095406;28;20511;-69
2021/04/29 09:11:10;;;;;;;28.10;20.20;;;14.30;99.90;;;;;;5095948;28;20728;-69
2021/04/29 09:13:35;;;;;;;27.13;17.63;;;14.50;99.90;;;;;;5095368;28;20459;-69
2021/04/29 09:16:10;;;;;;;26.93;19.50;;;14.70;99.90;;;;;;5095313;28;20438;-68
2021/04/29 09:18:37;;;;;;;34.07;21.47;;;15.00;99.90;;;;;;5095721;28;20480;-69
2021/04/29 09:21:09;;;;;;;34.47;22.60;;;15.00;99.90;;;;;;5095866;28;20797;-68
2021/04/29 09:23:40;;;;;;;33.27;22.93;;;14.40;99.90;;;;;;5095789;28;20462;-68
2021/04/29 09:26:13;;;;;;;33.50;23.77;;;14.50;99.90;;;;;;5095116;28;20386;-69
2021/04/29 09:28:52;;;;;;;28.63;22.10;;;14.60;99.90;;;;;;5095270;28;20831;-69
2021/04/29 09:31:19;;;;;;;28.70;20.10;;;14.30;99.90;;;;;;5095546;28;20445;-69
2021/04/29 09:33:50;;;;;;;33.40;23.37;;;14.40;99.90;;;;;;5095582;28;20449;-68
2021/04/29 09:36:37;;;;;;;37.50;23.93;;;14.30;99.90;;;;;;5094580;28;20508;-68
2021/04/29 09:39:17;;;;;;;33.87;25.67;;;14.60;99.90;;;;;;5095191;28;20449;-68
2021/04/29 09:41:48;;;;;;;43.83;26.23;;;14.40;99.90;;;;;;5095396;28;20796;-68
2021/04/29 09:44:23;;;;;;;40.83;27.43;;;14.10;99.90;;;;;;5095556;28;20421;-68
2021/04/29 09:47:03;;;;;;;33.60;26.20;;;14.30;99.90;;;;;;5095292;28;20421;-67
2021/04/29 09:49:38;;;;;;;34.90;28.33;;;14.20;99.90;;;;;;5095430;28;20378;-67
2021/04/29 09:52:16;;;;;;;33.13;26.10;;;14.40;99.90;;;;;;5095224;28;20474;-69
2021/04/29 09:54:41;;;;;;;34.83;27.10;;;14.00;99.90;;;;;;5094706;28;20425;-69
2021/04/29 09:57:09;;;;;;;42.33;27.10;;;14.30;99.90;;;;;;5094554;28;20410;-69
2021/04/29 09:59:40;;;;;;;37.43;28.70;;;14.30;99.90;;;;;;5095065;28;20182;-68
2021/04/29 10:02:06;;;;;;;34.10;26.50;;;14.20;99.90;;;;;;5094705;28;20427;-69
2021/04/29 10:04:32;;;;;;;36.77;24.93;;;14.00;99.90;;;;;;5094178;28;20817;-67
2021/04/29 10:07:02;;;;;;;38.40;23.90;;;13.90;99.90;;;;;;5095033;28;20420;-67
2021/04/29 10:09:29;;;;;;;30.50;22.57;;;14.00;99.90;;;;;;5094242;28;20187;-68
2021/04/29 10:12:06;;;;;;;33.10;24.50;;;14.20;99.90;;;;;;5094793;28;20928;-68
2021/04/29 10:14:38;;;;;;;49.07;26.63;;;14.20;99.90;;;;;;5094443;28;20459;-68
2021/04/29 10:17:08;;;;;;;39.63;23.40;;;14.40;99.90;;;;;;5094264;28;20444;-68
2021/04/29 10:19:51;;;;;;;28.70;19.00;;;14.20;99.90;;;;;;5094474;28;20443;-68
2021/04/29 10:22:17;;;;;;;33.50;24.83;;;13.80;99.90;;;;;;5094483;28;20492;-69
2021/04/29 10:24:45;;;;;;;38.90;25.97;;;14.10;99.90;;;;;;5094839;28;20444;-69
2021/04/29 10:27:13;;;;;;;32.03;24.80;;;14.40;99.90;;;;;;5094247;28;20431;-68
2021/04/29 10:29:39;;;;;;;33.13;25.53;;;15.20;99.90;;;;;;5094903;28;20550;-69
2021/04/29 10:32:11;;;;;;;34.70;26.27;;;15.50;99.90;;;;;;5093422;28;20425;-67
2021/04/29 10:34:43;;;;;;;22.80;19.03;;;15.70;99.90;;;;;;5093356;28;20452;-68
2021/04/29 10:37:20;;;;;;;34.73;26.57;;;14.80;99.90;;;;;;5093823;28;20477;-67
2021/04/29 10:39:50;;;;;;;34.70;28.20;;;14.70;99.90;;;;;;5093721;28;20918;-68
2021/04/29 10:42:16;;;;;;;38.03;28.83;;;14.30;99.90;;;;;;5093749;28;20384;-69
2021/04/29 10:44:52;;;;;;;43.57;29.53;;;14.50;99.90;;;;;;5091933;28;21038;-69
2021/04/29 10:47:37;;;;;;;32.30;25.37;;;14.50;99.90;;;;;;5092188;28;20186;-69
2021/04/29 10:50:09;;;;;;;37.70;28.30;;;14.70;99.90;;;;;;5093693;28;20803;-69
2021/04/29 10:53:02;;;;;;;41.20;27.50;;;14.80;99.90;;;;;;5093265;28;20450;-69
2021/04/29 10:55:33;;;;;;;31.83;24.83;;;14.70;99.90;;;;;;5093939;28;20491;-68
2021/04/29 10:58:00;;;;;;;32.13;25.60;;;15.30;99.90;;;;;;5093682;28;20434;-69
2021/04/29 11:00:28;;;;;;;33.53;26.47;;;15.70;99.90;;;;;;5093627;28;20409;-70
2021/04/29 11:03:12;;;;;;;41.97;30.53;;;15.30;99.90;;;;;;5093669;28;20435;-71
2021/04/29 11:05:37;;;;;;;37.30;29.60;;;14.90;99.90;;;;;;5093766;28;20381;-70
2021/04/29 11:08:05;;;;;;;43.53;29.73;;;14.50;99.90;;;;;;5093451;28;20434;-70
2021/04/29 11:10:33;;;;;;;38.90;27.67;;;14.50;99.90;;;;;;5094458;28;20174;-71
2021/04/29 11:12:59;;;;;;;33.00;20.07;;;14.10;99.90;;;;;;5093590;28;20411;-69
2021/04/29 11:15:29;;;;;;;40.80;30.97;;;13.60;99.90;;;;;;5093677;28;20475;-69
2021/04/29 11:18:11;;;;;;;39.90;27.13;;;13.20;99.90;;;;;;5094202;28;20679;-71
2021/04/29 11:20:51;;;;;;;38.67;29.50;;;12.20;99.90;;;;;;5093554;28;20405;-70
2021/04/29 11:23:27;;;;;;;40.40;30.00;;;12.60;99.90;;;;;;5093792;28;20443;-68
2021/04/29 11:26:17;;;;;;;30.60;24.10;;;12.10;99.90;;;;;;5091842;28;20439;-70
2021/04/29 11:28:44;;;;;;;21.70;15.63;;;11.90;99.90;;;;;;5093208;28;20446;-68
2021/04/29 11:31:10;;;;;;;28.23;20.90;;;11.50;99.90;;;;;;5093314;28;20769;-67
2021/04/29 11:33:45;;;;;;;24.93;19.00;;;11.50;99.90;;;;;;5093446;28;20422;-67
2021/04/29 11:36:15;;;;;;;34.80;18.40;;;11.40;99.90;;;;;;5093151;28;20893;-67
2021/04/29 11:38:55;;;;;;;25.40;15.70;;;11.90;99.90;;;;;;5091485;28;20507;-68
2021/04/29 11:41:21;;;;;;;20.43;14.80;;;12.20;99.90;;;;;;5093553;28;21031;-69
2021/04/29 11:44:00;;;;;;;26.20;16.07;;;12.10;99.90;;;;;;5092977;28;20414;-67
2021/04/29 11:46:27;;;;;;;21.63;14.77;;;12.60;99.90;;;;;;5093289;28;20405;-62
2021/04/29 11:48:58;;;;;;;21.00;13.50;;;13.30;99.90;;;;;;5093000;28;20401;-69
2021/04/29 11:51:25;;;;;;;17.20;14.20;;;13.20;99.90;;;;;;5093171;28;20769;-69
2021/04/29 11:53:51;;;;;;;15.37;12.17;;;13.80;99.90;;;;;;5092759;28;20425;-67
2021/04/29 11:56:18;;;;;;;11.63;9.00;;;13.20;99.90;;;;;;5093007;28;20413;-68
2021/04/29 11:58:44;;;;;;;16.43;10.37;;;13.10;99.90;;;;;;5092760;28;20460;-67
2021/04/29 12:01:14;;;;;;;14.80;9.80;;;13.80;99.90;;;;;;5092398;28;20454;-68
2021/04/29 12:03:41;;;;;;;14.23;10.83;;;13.30;99.90;;;;;;5092074;28;20997;-68
2021/04/29 12:06:07;;;;;;;13.63;10.13;;;13.10;99.90;;;;;;5092414;28;20389;-72
2021/04/29 12:08:35;;;;;;;10.40;9.30;;;13.30;99.90;;;;;;5092198;28;20581;-68
2021/04/29 12:11:06;;;;;;;13.47;8.47;;;13.10;99.90;;;;;;5092956;28;20527;-69
2021/04/29 12:13:35;;;;;;;10.93;9.77;;;13.50;99.90;;;;;;5092186;28;20474;-69
2021/04/29 12:16:04;;;;;;;14.80;11.33;;;14.40;99.90;;;;;;5093850;28;20409;-68
2021/04/29 12:18:30;;;;;;;11.00;9.63;;;14.30;99.90;;;;;;5097073;28;20546;-68
2021/04/29 12:20:56;;;;;;;13.80;9.67;;;13.60;99.90;;;;;;5097207;28;20402;-67
2021/04/29 12:23:22;;;;;;;16.80;13.17;;;13.30;99.90;;;;;;5097109;28;20425;-68
2021/04/29 12:25:57;;;;;;;13.57;11.33;;;13.70;99.90;;;;;;5097078;28;20404;-70
2021/04/29 12:28:34;;;;;;;11.70;9.90;;;13.50;99.90;;;;;;5096737;28;20409;-68
2021/04/29 12:31:20;;;;;;;11.57;9.97;;;13.30;99.90;;;;;;5096979;28;20429;-68
2021/04/29 12:34:04;;;;;;;16.83;9.27;;;13.20;99.90;;;;;;5095250;28;20486;-68
2021/04/29 12:36:53;;;;;;;13.93;6.30;;;12.70;99.90;;;;;;5096781;28;20381;-68
2021/04/29 12:39:26;;;;;;;13.67;7.90;;;11.90;99.90;;;;;;5096870;28;20440;-67